createdAt,value
2017-08-03T00:00:23.025Z,13.60
2017-08-03T00:02:50.633Z,14.13
2017-08-03T00:05:18.162Z,13.90
2017-08-03T00:07:46.398Z,14.17
2017-08-03T00:10:13.861Z,14.67
2017-08-03T00:12:41.345Z,15.17
2017-08-03T00:15:09.728Z,15.53
2017-08-03T00:17:38.148Z,15.23
2017-08-03T00:20:05.622Z,17.33
2017-08-03T00:22:33.084Z,15.77
2017-08-03T00:25:00.689Z,17.70
2017-08-03T00:27:28.925Z,14.00
2017-08-03T00:29:56.389Z,16.30
2017-08-03T00:32:23.874Z,17.20
2017-08-03T00:34:52.109Z,18.10
2017-08-03T00:37:19.572Z,14.60
2017-08-03T00:39:47.056Z,17.57
2017-08-03T00:42:15.296Z,17.23
2017-08-03T00:44:42.773Z,18.17
2017-08-03T00:47:10.236Z,15.77
2017-08-03T00:49:37.710Z,16.37
2017-08-03T00:52:05.177Z,17.27
2017-08-03T00:54:32.719Z,14.90
2017-08-03T00:57:00.940Z,16.23
2017-08-03T00:59:28.430Z,14.87
2017-08-03T01:01:55.921Z,15.93
2017-08-03T01:04:23.395Z,16.13
2017-08-03T01:06:51.065Z,16.80
2017-08-03T01:09:18.530Z,19.27
2017-08-03T01:11:46.055Z,17.00
2017-08-03T01:14:13.517Z,17.33
2017-08-03T01:16:41.026Z,16.83
2017-08-03T01:19:08.494Z,16.17
2017-08-03T01:21:35.975Z,18.00
2017-08-03T01:24:04.221Z,14.47
2017-08-03T01:26:31.682Z,15.77
2017-08-03T01:28:59.161Z,15.20
2017-08-03T01:31:27.409Z,14.83
2017-08-03T01:33:54.890Z,17.00
2017-08-03T01:36:23.201Z,14.40
2017-08-03T01:38:50.669Z,15.70
2017-08-03T01:41:18.265Z,14.30
2017-08-03T01:43:45.740Z,16.60
2017-08-03T01:46:13.974Z,15.00
2017-08-03T01:48:41.480Z,14.50
2017-08-03T01:51:08.941Z,13.97
2017-08-03T01:53:36.425Z,14.90
2017-08-03T01:56:03.918Z,16.37
2017-08-03T01:58:31.474Z,16.07
2017-08-03T02:00:58.953Z,15.57
2017-08-03T02:03:27.188Z,15.00
2017-08-03T02:05:54.659Z,15.27
2017-08-03T02:08:22.142Z,15.63
2017-08-03T02:10:50.377Z,16.20
2017-08-03T02:13:18.056Z,18.00
2017-08-03T02:15:45.504Z,16.97
2017-08-03T02:18:12.996Z,14.67
2017-08-03T02:20:40.488Z,15.40
2017-08-03T02:23:07.953Z,15.87
2017-08-03T02:25:35.564Z,16.03
2017-08-03T02:28:03.796Z,17.30
2017-08-03T02:30:31.295Z,16.30
2017-08-03T02:32:59.523Z,16.07
2017-08-03T02:35:27.097Z,15.90
2017-08-03T02:37:54.603Z,16.27
2017-08-03T02:40:23.050Z,13.63
2017-08-03T02:42:50.527Z,12.80
2017-08-03T02:45:18.752Z,14.50
2017-08-03T02:47:46.242Z,13.60
2017-08-03T02:50:13.707Z,12.47
2017-08-03T02:52:41.279Z,15.80
2017-08-03T02:55:10.258Z,15.27
2017-08-03T02:57:38.487Z,15.83
2017-08-03T03:00:06.062Z,14.30
2017-08-03T03:02:33.525Z,14.93
2017-08-03T03:05:00.988Z,15.63
2017-08-03T03:07:28.551Z,14.40
2017-08-03T03:09:56.119Z,13.67
2017-08-03T03:12:24.373Z,13.47
2017-08-03T03:14:51.906Z,15.10
2017-08-03T03:17:19.390Z,15.63
2017-08-03T03:19:46.852Z,15.60
2017-08-03T03:22:14.450Z,15.90
2017-08-03T03:24:41.927Z,16.20
2017-08-03T03:27:09.394Z,15.20
2017-08-03T03:29:36.870Z,15.40
2017-08-03T03:32:04.460Z,14.60
2017-08-03T03:34:32.705Z,15.80
2017-08-03T03:37:00.325Z,15.00
2017-08-03T03:39:27.805Z,15.90
2017-08-03T03:41:55.326Z,17.43
2017-08-03T03:44:22.821Z,16.13
2017-08-03T03:46:50.303Z,14.47
2017-08-03T03:49:17.797Z,16.73
2017-08-03T03:51:45.306Z,15.93
2017-08-03T03:54:12.925Z,16.30
2017-08-03T03:56:40.417Z,17.30
2017-08-03T03:59:07.897Z,18.00
2017-08-03T04:01:35.371Z,17.43
2017-08-03T04:04:02.869Z,16.67
2017-08-03T04:06:30.344Z,16.40
2017-08-03T04:08:57.808Z,18.17
2017-08-03T04:11:25.343Z,18.90
2017-08-03T04:13:52.884Z,15.67
2017-08-03T04:16:20.345Z,15.13
2017-08-03T04:18:47.822Z,16.60
2017-08-03T04:21:15.370Z,15.60
2017-08-03T04:23:42.861Z,16.87
2017-08-03T04:26:10.415Z,17.20
2017-08-03T04:28:37.902Z,19.13
2017-08-03T04:31:05.357Z,19.20
2017-08-03T04:33:33.596Z,17.70
2017-08-03T04:36:01.074Z,16.17
2017-08-03T04:38:28.554Z,15.47
2017-08-03T04:40:56.874Z,16.37
2017-08-03T04:43:24.378Z,15.53
2017-08-03T04:45:52.605Z,16.63
2017-08-03T04:48:20.137Z,14.70
2017-08-03T04:50:47.611Z,16.10
2017-08-03T04:53:15.150Z,13.73
2017-08-03T04:55:43.556Z,12.77
2017-08-03T04:58:11.022Z,13.73
2017-08-03T05:00:38.998Z,12.83
2017-08-03T05:03:06.471Z,12.50
2017-08-03T05:05:33.939Z,12.07
2017-08-03T05:08:02.189Z,12.20
2017-08-03T05:10:29.665Z,11.00
2017-08-03T05:12:57.242Z,12.00
2017-08-03T05:15:25.630Z,12.40
2017-08-03T05:17:53.112Z,12.00
2017-08-03T05:20:20.585Z,11.07
2017-08-03T05:22:48.069Z,10.87
2017-08-03T05:25:15.537Z,10.83
2017-08-03T05:27:43.001Z,11.40
2017-08-03T05:30:11.242Z,12.37
2017-08-03T05:32:38.714Z,11.60
2017-08-03T05:35:06.202Z,12.67
2017-08-03T05:37:34.441Z,11.73
2017-08-03T05:40:01.944Z,11.30
2017-08-03T05:42:29.411Z,11.57
2017-08-03T05:44:56.878Z,13.13
2017-08-03T05:47:24.958Z,12.70
2017-08-03T05:49:52.605Z,12.93
2017-08-03T05:52:20.093Z,12.73
2017-08-03T05:54:47.569Z,11.97
2017-08-03T05:57:15.825Z,12.10
2017-08-03T05:59:43.309Z,12.03
2017-08-03T06:02:11.553Z,11.70
2017-08-03T06:04:39.029Z,12.07
2017-08-03T06:07:06.501Z,11.17
2017-08-03T06:09:33.982Z,11.30
2017-08-03T06:12:01.589Z,11.73
2017-08-03T06:14:29.074Z,10.67
2017-08-03T06:16:57.293Z,9.33
2017-08-03T06:19:24.909Z,9.80
2017-08-03T06:21:53.161Z,11.00
2017-08-03T06:24:20.789Z,10.67
2017-08-03T06:26:48.275Z,10.13
2017-08-03T06:29:15.738Z,9.93
2017-08-03T06:31:43.216Z,11.07
2017-08-03T06:34:11.498Z,10.83
2017-08-03T06:36:39.748Z,10.20
2017-08-03T06:39:07.232Z,10.20
2017-08-03T06:41:35.484Z,10.37
2017-08-03T06:44:02.956Z,10.90
2017-08-03T06:46:30.440Z,10.80
2017-08-03T06:48:57.909Z,11.67
2017-08-03T06:51:25.402Z,11.27
2017-08-03T06:53:52.925Z,10.73
2017-08-03T06:56:20.519Z,11.40
2017-08-03T06:58:47.981Z,10.73
2017-08-03T07:01:15.457Z,10.70
2017-08-03T07:03:43.701Z,10.97
2017-08-03T07:06:11.185Z,11.00
2017-08-03T07:08:39.560Z,12.07
2017-08-03T07:11:07.803Z,12.13
2017-08-03T07:13:35.278Z,12.40
2017-08-03T07:16:02.754Z,11.33
2017-08-03T07:18:30.993Z,12.03
2017-08-03T07:20:58.475Z,12.30
2017-08-03T07:23:25.946Z,12.40
2017-08-03T07:25:54.187Z,11.57
2017-08-03T07:28:21.666Z,11.27
2017-08-03T07:30:49.137Z,10.23
2017-08-03T07:33:17.371Z,10.53
2017-08-03T07:35:44.846Z,10.53
2017-08-03T07:38:12.317Z,9.70
2017-08-03T07:40:40.565Z,9.27
2017-08-03T07:43:08.191Z,7.70
2017-08-03T07:45:35.652Z,9.53
2017-08-03T07:48:03.113Z,8.17
2017-08-03T07:50:30.581Z,9.07
2017-08-03T07:52:58.072Z,9.40
2017-08-03T07:55:26.317Z,8.93
2017-08-03T07:57:53.781Z,8.17
2017-08-03T08:00:21.258Z,8.50
2017-08-03T08:02:48.716Z,8.87
2017-08-03T08:05:16.189Z,9.00
2017-08-03T08:07:44.424Z,8.47
2017-08-03T08:10:11.893Z,7.70
2017-08-03T08:12:39.354Z,8.07
2017-08-03T08:15:06.837Z,7.70
2017-08-03T08:17:34.298Z,8.20
2017-08-03T08:20:01.823Z,7.70
2017-08-03T08:22:29.292Z,7.10
2017-08-03T08:24:57.517Z,5.97
2017-08-03T08:27:25.015Z,5.50
2017-08-03T08:29:52.478Z,4.83
2017-08-03T08:32:19.971Z,5.40
2017-08-03T08:34:47.416Z,5.10
2017-08-03T08:37:20.586Z,4.67
2017-08-03T08:39:55.934Z,4.60
2017-08-03T08:42:23.605Z,4.20
2017-08-03T08:44:51.909Z,4.57
2017-08-03T08:47:19.380Z,3.90
2017-08-03T08:49:46.890Z,4.30
2017-08-03T08:52:23.305Z,4.17
2017-08-03T08:54:50.904Z,4.00
2017-08-03T08:57:18.379Z,3.80
2017-08-03T08:59:45.842Z,4.00
2017-08-03T09:02:13.642Z,4.77
2017-08-03T09:04:41.305Z,3.80
2017-08-03T09:07:08.766Z,4.80
2017-08-03T09:09:36.231Z,3.80
2017-08-03T09:12:03.702Z,4.53
2017-08-03T09:14:31.193Z,4.20
2017-08-03T09:16:58.659Z,4.40
2017-08-03T09:19:26.138Z,4.70
2017-08-03T09:21:53.703Z,4.37
2017-08-03T09:24:21.163Z,4.17
2017-08-03T09:26:48.649Z,4.70
2017-08-03T09:29:16.134Z,4.73
2017-08-03T09:31:44.314Z,4.20
2017-08-03T09:34:11.768Z,4.03
2017-08-03T09:36:39.249Z,4.63
2017-08-03T09:39:06.717Z,4.80
2017-08-03T09:41:34.261Z,4.10
2017-08-03T09:44:01.900Z,5.10
2017-08-03T09:46:29.359Z,4.30
2017-08-03T09:48:56.853Z,3.97
2017-08-03T09:51:25.106Z,3.87
2017-08-03T09:53:52.694Z,3.83
2017-08-03T09:56:20.190Z,4.00
2017-08-03T09:58:48.414Z,3.40
2017-08-03T10:01:16.024Z,3.60
2017-08-03T10:03:44.269Z,3.47
2017-08-03T10:06:11.741Z,3.80
2017-08-03T10:08:39.206Z,4.00
2017-08-03T10:11:07.428Z,3.67
2017-08-03T10:13:34.907Z,3.30
2017-08-03T10:16:02.361Z,3.07
2017-08-03T10:18:29.920Z,3.23
2017-08-03T10:20:57.457Z,3.40
2017-08-03T10:23:24.913Z,3.23
2017-08-03T10:25:52.402Z,2.80
2017-08-03T10:28:19.866Z,3.00
2017-08-03T10:30:47.366Z,3.00
2017-08-03T10:33:14.833Z,2.87
2017-08-03T10:35:42.293Z,3.00
2017-08-03T10:38:09.765Z,2.97
2017-08-03T10:40:37.250Z,2.53
2017-08-03T10:43:05.490Z,2.40
2017-08-03T10:45:33.142Z,2.90
2017-08-03T10:48:00.700Z,2.77
2017-08-03T10:50:28.164Z,3.23
2017-08-03T10:52:55.615Z,3.07
2017-08-03T10:55:23.184Z,2.77
2017-08-03T10:57:50.635Z,2.90
2017-08-03T11:00:18.105Z,3.00
2017-08-03T11:02:45.577Z,2.90
2017-08-03T11:05:13.193Z,3.20
2017-08-03T11:07:40.678Z,3.13
2017-08-03T11:10:08.141Z,3.20
2017-08-03T11:12:35.624Z,2.60
2017-08-03T11:15:03.873Z,3.73
2017-08-03T11:17:31.554Z,3.33
2017-08-03T11:19:59.012Z,3.50
2017-08-03T11:22:26.488Z,3.97
2017-08-03T11:24:54.734Z,4.50
2017-08-03T11:27:22.253Z,4.70
2017-08-03T11:29:49.693Z,4.57
2017-08-03T11:32:17.156Z,3.97
2017-08-03T11:34:44.625Z,4.90
2017-08-03T11:37:12.083Z,4.53
2017-08-03T11:39:39.565Z,3.67
2017-08-03T11:42:07.301Z,3.53
2017-08-03T11:44:34.758Z,4.10
2017-08-03T11:47:02.229Z,2.70
2017-08-03T11:49:29.702Z,2.90
2017-08-03T11:51:57.183Z,2.97
2017-08-03T11:54:24.648Z,3.63
2017-08-03T11:56:52.896Z,2.80
2017-08-03T11:59:20.353Z,2.87
2017-08-03T12:01:47.929Z,2.77
2017-08-03T12:04:16.177Z,2.90
2017-08-03T12:06:43.633Z,2.93
2017-08-03T12:09:11.102Z,2.37
2017-08-03T12:11:38.560Z,2.70
2017-08-03T12:14:06.026Z,2.30
2017-08-03T12:16:34.317Z,2.37
2017-08-03T12:19:01.778Z,2.77
2017-08-03T12:21:29.420Z,2.10
2017-08-03T12:23:56.876Z,2.30
2017-08-03T12:26:25.137Z,2.20
2017-08-03T12:28:52.599Z,2.20
2017-08-03T12:31:20.056Z,2.17
2017-08-03T12:33:47.570Z,2.00
2017-08-03T12:36:15.025Z,2.63
2017-08-03T12:38:42.585Z,2.23
2017-08-03T12:41:10.038Z,2.00
2017-08-03T12:43:37.501Z,2.40
2017-08-03T12:46:05.137Z,2.10
2017-08-03T12:48:32.597Z,2.07
2017-08-03T12:51:00.920Z,2.10
2017-08-03T12:53:28.390Z,2.20
2017-08-03T12:55:55.882Z,2.50
2017-08-03T12:58:24.325Z,2.03
2017-08-03T13:00:51.804Z,1.70
2017-08-03T13:03:20.037Z,1.90
2017-08-03T13:05:47.502Z,2.10
2017-08-03T13:08:14.980Z,1.60
2017-08-03T13:10:43.219Z,1.73
2017-08-03T13:13:10.688Z,1.83
2017-08-03T13:15:38.277Z,2.07
2017-08-03T13:18:06.515Z,1.80
2017-08-03T13:20:33.989Z,1.83
2017-08-03T13:23:01.574Z,2.00
2017-08-03T13:25:29.078Z,2.00
2017-08-03T13:27:56.537Z,1.97
2017-08-03T13:30:24.020Z,2.37
2017-08-03T13:32:51.500Z,1.80
2017-08-03T13:35:18.958Z,1.80
2017-08-03T13:37:47.175Z,1.80
2017-08-03T13:40:14.697Z,1.83
2017-08-03T13:42:42.147Z,1.80
2017-08-03T13:45:10.406Z,1.70
2017-08-03T13:47:37.864Z,2.20
2017-08-03T13:50:06.094Z,2.07
2017-08-03T13:52:33.569Z,2.43
2017-08-03T13:55:01.033Z,2.30
2017-08-03T13:57:28.497Z,1.80
2017-08-03T13:59:55.957Z,2.43
2017-08-03T14:02:23.432Z,2.60
2017-08-03T14:04:51.651Z,2.20
2017-08-03T14:07:19.128Z,2.17
2017-08-03T14:09:46.603Z,2.20
2017-08-03T14:12:14.085Z,2.50
2017-08-03T14:14:41.559Z,1.73
2017-08-03T14:17:09.033Z,2.10
2017-08-03T14:19:36.486Z,2.27
2017-08-03T14:22:03.953Z,2.13
2017-08-03T14:24:31.468Z,2.70
2017-08-03T14:26:59.746Z,1.97
2017-08-03T14:29:27.213Z,2.07
2017-08-03T14:31:54.697Z,2.10
2017-08-03T14:34:22.254Z,2.47
2017-08-03T14:36:49.714Z,2.37
2017-08-03T14:39:17.185Z,2.40
2017-08-03T14:41:44.648Z,2.50
2017-08-03T14:44:12.128Z,2.20
2017-08-03T14:46:40.354Z,2.07
2017-08-03T14:51:41.965Z,2.97
2017-08-03T14:54:09.476Z,2.10
2017-08-03T14:56:36.940Z,2.43
2017-08-03T14:59:04.418Z,1.93
2017-08-03T15:01:31.893Z,2.40
2017-08-03T15:03:59.389Z,2.90
2017-08-03T15:06:26.850Z,2.60
2017-08-03T15:08:54.324Z,2.33
2017-08-03T15:11:21.807Z,2.60
2017-08-03T15:13:49.280Z,2.27
2017-08-03T15:16:16.745Z,2.00
2017-08-03T15:18:45.170Z,2.50
2017-08-03T15:21:12.636Z,2.30
2017-08-03T15:23:40.102Z,2.50
2017-08-03T15:26:07.569Z,2.80
2017-08-03T15:28:35.203Z,2.00
2017-08-03T15:31:02.740Z,2.40
2017-08-03T15:33:30.189Z,2.87
2017-08-03T15:35:57.674Z,2.67
2017-08-03T15:38:25.433Z,2.50
2017-08-03T15:40:52.904Z,1.90
2017-08-03T15:43:20.369Z,2.70
2017-08-03T15:45:47.845Z,2.40
2017-08-03T15:48:15.390Z,2.77
2017-08-03T15:50:42.926Z,2.30
2017-08-03T15:53:10.392Z,2.50
2017-08-03T15:55:37.861Z,2.57
2017-08-03T15:58:05.357Z,2.83
2017-08-03T16:00:32.953Z,2.00
2017-08-03T16:03:00.426Z,2.33
2017-08-03T16:05:27.910Z,2.90
2017-08-03T16:07:55.400Z,2.03
2017-08-03T16:10:22.877Z,2.47
2017-08-03T16:12:50.393Z,2.03
2017-08-03T16:15:18.632Z,2.27
2017-08-03T16:17:46.357Z,2.50
2017-08-03T16:20:13.836Z,1.90
2017-08-03T16:22:41.327Z,1.83
2017-08-03T16:25:08.865Z,2.13
2017-08-03T16:27:36.351Z,2.00
2017-08-03T16:30:03.997Z,2.03
2017-08-03T16:32:31.449Z,2.40
2017-08-03T16:34:59.527Z,2.37
2017-08-03T16:37:26.988Z,2.23
2017-08-03T16:39:54.541Z,2.53
2017-08-03T16:42:22.017Z,1.90
2017-08-03T16:44:50.293Z,3.50
2017-08-03T16:47:18.621Z,1.87
2017-08-03T16:49:46.130Z,2.07
2017-08-03T16:52:14.402Z,2.87
2017-08-03T16:54:41.936Z,2.53
2017-08-03T16:57:09.427Z,2.10
2017-08-03T16:59:37.653Z,2.13
2017-08-03T17:02:05.403Z,2.10
2017-08-03T17:04:32.874Z,2.10
2017-08-03T17:07:01.218Z,2.43
2017-08-03T17:09:28.759Z,1.97
2017-08-03T17:11:56.379Z,2.63
2017-08-03T17:14:23.871Z,2.30
2017-08-03T17:16:52.158Z,2.20
2017-08-03T17:19:19.634Z,2.20
2017-08-03T17:21:47.389Z,3.00
2017-08-03T17:24:14.872Z,2.13
2017-08-03T17:26:42.336Z,1.83
2017-08-03T17:29:09.813Z,2.37
2017-08-03T17:31:37.297Z,1.90
2017-08-03T17:34:05.555Z,2.30
2017-08-03T17:36:33.225Z,2.00
2017-08-03T17:39:00.742Z,2.10
2017-08-03T17:41:28.219Z,2.60
2017-08-03T17:43:55.776Z,2.30
2017-08-03T17:46:23.265Z,2.30
2017-08-03T17:48:51.520Z,2.50
2017-08-03T17:51:18.985Z,2.17
2017-08-03T17:53:47.389Z,2.00
2017-08-03T17:56:14.866Z,1.97
2017-08-03T17:58:42.372Z,2.90
2017-08-03T18:01:09.865Z,2.60
2017-08-03T18:03:37.626Z,2.20
2017-08-03T18:06:05.099Z,2.23
2017-08-03T18:08:32.555Z,2.20
2017-08-03T18:11:00.078Z,1.80
2017-08-03T18:13:28.326Z,2.60
2017-08-03T18:15:55.803Z,2.60
2017-08-03T18:18:23.313Z,2.43
2017-08-03T18:20:50.801Z,2.70
2017-08-03T18:23:18.349Z,2.20
2017-08-03T18:25:45.819Z,2.03
2017-08-03T18:28:13.372Z,2.30
2017-08-03T18:30:40.840Z,2.07
2017-08-03T18:33:08.325Z,2.43
2017-08-03T18:35:35.795Z,2.70
2017-08-03T18:38:03.483Z,2.03
2017-08-03T18:40:30.945Z,2.40
2017-08-03T18:42:58.432Z,2.40
2017-08-03T18:45:25.895Z,2.57
2017-08-03T18:47:54.155Z,1.70
2017-08-03T18:50:21.732Z,2.10
2017-08-03T18:52:49.223Z,2.00
2017-08-03T18:55:16.706Z,2.07
2017-08-03T18:57:44.175Z,2.10
2017-08-03T19:00:11.844Z,2.20
2017-08-03T19:02:39.301Z,2.60
2017-08-03T19:05:06.792Z,2.53
2017-08-03T19:07:34.350Z,2.03
2017-08-03T19:10:01.859Z,2.43
2017-08-03T19:12:29.345Z,1.93
2017-08-03T19:14:56.845Z,2.10
2017-08-03T19:17:24.325Z,2.27
2017-08-03T19:19:51.855Z,2.20
2017-08-03T19:22:19.305Z,2.80
2017-08-03T19:24:46.794Z,2.00
2017-08-03T19:27:14.262Z,2.17
2017-08-03T19:29:41.745Z,2.20
2017-08-03T19:32:09.237Z,2.33
2017-08-03T19:34:36.706Z,2.17
2017-08-03T19:37:04.171Z,1.73
2017-08-03T19:39:31.688Z,2.70
2017-08-03T19:41:59.941Z,2.00
2017-08-03T19:44:27.609Z,2.20
2017-08-03T19:46:55.073Z,2.33
2017-08-03T19:49:22.554Z,2.27
2017-08-03T19:51:50.732Z,2.07
2017-08-03T19:54:18.285Z,2.40
2017-08-03T19:56:45.996Z,2.37
2017-08-03T19:59:13.469Z,2.20
2017-08-03T20:01:40.951Z,2.47
2017-08-03T20:04:09.185Z,2.57
2017-08-03T20:06:47.635Z,2.27
2017-08-03T20:09:17.760Z,2.60
2017-08-03T20:11:45.245Z,3.10
2017-08-03T20:14:12.705Z,2.30
2017-08-03T20:16:40.187Z,2.30
2017-08-03T20:19:07.667Z,1.90
2017-08-03T20:21:35.922Z,2.70
2017-08-03T20:24:03.465Z,2.60
2017-08-03T20:26:30.950Z,2.20
2017-08-03T20:28:58.582Z,2.30
2017-08-03T20:31:26.053Z,2.30
2017-08-03T20:33:53.993Z,3.33
2017-08-03T20:36:21.533Z,2.63
2017-08-03T20:38:49.009Z,2.40
2017-08-03T20:41:16.494Z,2.40
2017-08-03T20:43:43.961Z,2.50
2017-08-03T20:46:11.441Z,2.60
2017-08-03T20:48:39.693Z,2.77
2017-08-03T20:51:07.149Z,2.50
2017-08-03T20:53:34.638Z,2.50
2017-08-03T20:56:02.237Z,2.37
2017-08-03T20:58:29.710Z,2.40
2017-08-03T21:00:57.190Z,2.67
2017-08-03T21:03:25.423Z,2.50
2017-08-03T21:05:52.920Z,2.43
2017-08-03T21:08:20.385Z,2.40
2017-08-03T21:10:48.630Z,2.50
2017-08-03T21:13:16.101Z,2.77
2017-08-03T21:15:43.584Z,2.97
2017-08-03T21:18:11.278Z,2.57
2017-08-03T21:20:38.738Z,2.20
2017-08-03T21:23:06.218Z,2.57
2017-08-03T21:25:33.682Z,3.20
2017-08-03T21:28:01.360Z,2.20
2017-08-03T21:30:29.722Z,2.53
2017-08-03T21:32:57.194Z,2.97
2017-08-03T21:35:24.853Z,2.43
2017-08-03T21:37:52.307Z,2.20
2017-08-03T21:40:19.774Z,2.87
2017-08-03T21:42:48.012Z,2.57
2017-08-03T21:45:15.510Z,2.67
2017-08-03T21:47:42.989Z,2.63
2017-08-03T21:50:10.521Z,2.70
2017-08-03T21:52:38.764Z,2.40
2017-08-03T21:55:06.225Z,2.87
2017-08-03T21:57:33.708Z,2.37
2017-08-03T22:00:01.947Z,2.53
2017-08-03T22:02:29.435Z,2.30
2017-08-03T22:04:56.917Z,2.97
2017-08-03T22:07:24.406Z,2.90
2017-08-03T22:09:51.883Z,2.80
2017-08-03T22:12:19.353Z,2.30
2017-08-03T22:14:46.894Z,2.40
2017-08-03T22:17:14.475Z,2.50
2017-08-03T22:19:41.935Z,2.70
2017-08-03T22:22:09.428Z,2.00
2017-08-03T22:24:37.390Z,2.83
2017-08-03T22:27:04.899Z,2.60
2017-08-03T22:29:32.361Z,3.03
2017-08-03T22:31:59.825Z,2.53
2017-08-03T22:34:27.312Z,2.90
2017-08-03T22:36:54.871Z,2.67
2017-08-03T22:41:56.986Z,3.00
2017-08-03T22:44:24.538Z,2.00
2017-08-03T22:46:52.146Z,2.30
2017-08-03T22:49:20.476Z,2.57
2017-08-03T22:51:48.091Z,2.50
2017-08-03T22:54:16.616Z,2.60
2017-08-03T22:56:44.100Z,2.70
2017-08-03T22:59:11.589Z,2.40
2017-08-03T23:01:39.825Z,2.10
2017-08-03T23:04:07.369Z,2.60
2017-08-03T23:06:34.842Z,3.00
2017-08-03T23:09:02.306Z,2.90
2017-08-03T23:11:29.769Z,2.10
2017-08-03T23:13:57.275Z,2.13
2017-08-03T23:16:24.734Z,2.13
2017-08-03T23:18:52.207Z,2.30
2017-08-03T23:21:19.687Z,2.67
2017-08-03T23:23:47.170Z,2.43
2017-08-03T23:28:49.305Z,2.87
2017-08-03T23:31:16.787Z,2.20
2017-08-03T23:33:44.273Z,3.00
2017-08-03T23:36:12.542Z,2.50
2017-08-03T23:38:40.006Z,1.90
2017-08-03T23:41:08.265Z,2.37
2017-08-03T23:43:35.743Z,2.50
2017-08-03T23:46:03.985Z,2.93
2017-08-03T23:48:31.937Z,2.90
2017-08-03T23:50:59.425Z,2.50
2017-08-03T23:53:26.902Z,2.10
2017-08-03T23:55:55.138Z,2.47
2017-08-03T23:58:22.605Z,3.30
